Time;durP1;ratioP1;P1;durP2;ratioP2;P2;SDS_P1;SDS_P2;PMS_P1;PMS_P2;Temp;Humidity;BMP_temperature;BMP_pressure;BME280_temperature;BME280_humidity;BME280_pressure;Samples;Min_cycle;Max_cycle;Signal;HPM_P1;HPM_P2
2022/11/04 00:01:27;;;;;;;1.30;1.10;;;19.90;99.90;;;;;;5035294;28;20484;-36
2022/11/04 00:03:55;;;;;;;1.63;1.30;;;19.90;99.90;;;;;;5031848;28;20210;-37
2022/11/04 00:06:23;;;;;;;1.63;1.38;;;19.80;99.90;;;;;;5038305;28;20552;-37
2022/11/04 00:08:50;;;;;;;1.42;1.23;;;19.90;99.90;;;;;;5033138;28;20601;-36
2022/11/04 00:14:01;;;;;;;1.27;0.95;;;19.80;99.90;;;;;;5035260;28;20213;-37
2022/11/04 00:19:13;;;;;;;1.48;1.30;;;19.80;99.90;;;;;;5043280;28;20595;-42
2022/11/04 00:29:53;;;;;;;2.42;1.20;;;19.70;99.90;;;;;;5033192;28;20202;-37
2022/11/04 00:35:06;;;;;;;1.30;1.10;;;19.70;99.90;;;;;;5035900;28;20666;-36
2022/11/04 00:37:35;;;;;;;2.10;1.10;;;19.70;99.90;;;;;;5033841;28;20200;-36
2022/11/04 00:40:02;;;;;;;1.13;1.02;;;19.70;99.90;;;;;;5041544;28;20203;-36
2022/11/04 00:42:29;;;;;;;1.20;1.10;;;19.70;99.90;;;;;;5033025;28;20230;-36
2022/11/04 00:44:56;;;;;;;3.92;1.25;;;19.70;99.90;;;;;;5034735;28;20202;-36
2022/11/04 00:47:23;;;;;;;2.17;1.00;;;19.70;99.90;;;;;;5032625;28;20204;-36
2022/11/04 00:49:50;;;;;;;1.20;1.08;;;19.70;99.90;;;;;;5040154;28;20191;-37
2022/11/04 00:52:18;;;;;;;1.25;1.10;;;19.70;99.90;;;;;;5041768;28;20681;-36
2022/11/04 00:54:45;;;;;;;1.33;1.20;;;19.70;99.90;;;;;;5042502;28;20292;-36
2022/11/04 00:57:12;;;;;;;1.70;1.20;;;19.70;99.90;;;;;;5031028;28;20195;-37
2022/11/04 00:59:39;;;;;;;1.58;1.08;;;19.60;99.90;;;;;;5033358;28;20191;-36
2022/11/04 01:02:07;;;;;;;1.92;1.30;;;19.60;99.90;;;;;;5038167;28;20188;-36
2022/11/04 01:04:33;;;;;;;2.65;1.50;;;19.70;99.90;;;;;;5033910;28;20322;-36
2022/11/04 01:07:00;;;;;;;1.25;0.98;;;19.60;99.90;;;;;;5037218;28;20195;-35
2022/11/04 01:09:29;;;;;;;1.40;1.05;;;19.60;99.90;;;;;;5034469;28;20195;-36
2022/11/04 01:11:56;;;;;;;1.23;1.13;;;19.60;99.90;;;;;;5030310;28;20192;-36
2022/11/04 01:14:23;;;;;;;2.13;0.90;;;19.60;99.90;;;;;;5039460;28;20202;-36
2022/11/04 01:16:50;;;;;;;1.75;1.17;;;19.60;99.90;;;;;;5036161;28;20574;-36
2022/11/04 01:19:17;;;;;;;1.67;1.00;;;19.60;99.90;;;;;;5044692;28;20202;-36
2022/11/04 01:21:44;;;;;;;1.30;0.93;;;19.60;99.90;;;;;;5047930;28;20195;-35
2022/11/04 01:24:11;;;;;;;1.52;1.13;;;19.60;99.90;;;;;;5038593;28;20586;-36
2022/11/04 01:26:39;;;;;;;1.20;1.10;;;19.60;99.90;;;;;;5034221;28;20203;-36
2022/11/04 01:29:05;;;;;;;1.10;0.90;;;19.50;99.90;;;;;;5035246;28;20408;-36
2022/11/04 01:31:32;;;;;;;1.20;1.00;;;19.50;99.90;;;;;;5036014;28;20202;-37
2022/11/04 01:33:59;;;;;;;1.48;1.30;;;19.50;99.90;;;;;;5037862;28;20195;-36
2022/11/04 01:36:27;;;;;;;1.40;1.08;;;19.50;99.90;;;;;;5047756;28;20211;-36
2022/11/04 01:38:55;;;;;;;3.15;1.30;;;19.50;99.90;;;;;;5041141;28;20693;-36
2022/11/04 01:41:24;;;;;;;1.40;1.20;;;19.50;99.90;;;;;;5040596;28;20208;-36
2022/11/04 01:43:54;;;;;;;1.10;1.00;;;19.50;99.90;;;;;;5035334;28;20225;-35
2022/11/04 01:46:28;;;;;;;2.22;1.25;;;19.50;99.90;;;;;;5038210;28;20307;-36
2022/11/04 01:48:59;;;;;;;1.10;0.90;;;19.50;99.90;;;;;;5039545;28;20199;-36
2022/11/04 01:51:27;;;;;;;1.40;1.30;;;19.40;99.90;;;;;;5040874;28;20210;-36
2022/11/04 01:53:56;;;;;;;1.17;1.08;;;19.50;99.90;;;;;;5034444;28;20201;-36
2022/11/04 01:56:25;;;;;;;1.20;1.10;;;19.50;99.90;;;;;;5036736;28;20204;-36
2022/11/04 01:59:02;;;;;;;1.17;1.08;;;19.40;99.90;;;;;;5039049;28;20196;-36
2022/11/04 02:01:28;;;;;;;1.17;1.08;;;19.40;99.90;;;;;;5035978;28;20594;-36
2022/11/04 02:04:24;;;;;;;1.10;0.90;;;19.40;99.90;;;;;;5031915;28;20579;-37
2022/11/04 02:06:47;;;;;;;1.65;1.35;;;19.40;99.90;;;;;;5031242;28;20566;-36
2022/11/04 02:09:15;;;;;;;1.25;1.10;;;19.40;99.90;;;;;;5041193;28;20196;-37
2022/11/04 02:14:28;;;;;;;1.30;1.00;;;19.40;99.90;;;;;;5047234;28;20585;-36
2022/11/04 02:17:01;;;;;;;1.10;0.90;;;19.30;99.90;;;;;;5040200;28;20211;-36
2022/11/04 02:19:48;;;;;;;1.35;1.15;;;19.30;99.90;;;;;;5050191;28;20199;-36
2022/11/04 02:22:57;;;;;;;1.00;0.90;;;19.30;99.90;;;;;;5038460;28;20207;-36
2022/11/04 02:25:39;;;;;;;1.15;0.98;;;19.30;99.90;;;;;;4972992;28;20678;-37
2022/11/04 02:28:25;;;;;;;1.40;0.93;;;19.30;99.90;;;;;;5035641;28;20192;-36
2022/11/04 02:30:58;;;;;;;2.00;0.98;;;19.30;99.90;;;;;;5041425;28;20352;-36
2022/11/04 02:33:33;;;;;;;1.20;0.90;;;19.30;99.90;;;;;;5033532;28;20206;-37
2022/11/04 02:36:03;;;;;;;1.30;0.95;;;19.30;99.90;;;;;;5042747;28;20208;-37
2022/11/04 02:38:35;;;;;;;1.65;1.10;;;19.30;99.90;;;;;;5037084;28;20195;-36
2022/11/04 02:41:12;;;;;;;1.10;1.00;;;19.30;99.90;;;;;;5037554;28;20196;-36
2022/11/04 02:43:52;;;;;;;1.20;0.90;;;19.30;99.90;;;;;;5033129;28;20342;-36
2022/11/04 02:46:24;;;;;;;0.90;0.80;;;19.20;99.90;;;;;;5033376;28;20199;-36
2022/11/04 02:48:58;;;;;;;1.88;1.20;;;19.20;99.90;;;;;;5041231;28;20203;-37
2022/11/04 02:51:29;;;;;;;2.20;1.35;;;19.20;99.90;;;;;;5033363;28;20199;-37
2022/11/04 02:54:05;;;;;;;1.10;0.90;;;19.20;99.90;;;;;;5034764;28;20195;-36
2022/11/04 02:56:37;;;;;;;1.17;0.85;;;19.20;99.90;;;;;;5032589;28;20188;-36
2022/11/04 02:59:07;;;;;;;1.60;0.98;;;19.20;99.90;;;;;;5044371;28;20210;-36
2022/11/04 03:01:41;;;;;;;1.40;0.90;;;19.20;99.90;;;;;;5036255;28;20286;-36
2022/11/04 03:04:11;;;;;;;1.85;1.23;;;19.20;99.90;;;;;;5037494;28;20272;-36
2022/11/04 03:06:40;;;;;;;1.10;0.80;;;19.20;99.90;;;;;;5042585;28;20207;-36
2022/11/04 03:09:08;;;;;;;1.10;0.95;;;19.10;99.90;;;;;;5036296;28;20575;-36
2022/11/04 03:11:35;;;;;;;1.30;1.10;;;19.10;99.90;;;;;;5035864;28;20614;-35
2022/11/04 03:14:06;;;;;;;1.63;0.90;;;19.10;99.90;;;;;;5036277;28;20196;-36
2022/11/04 03:16:40;;;;;;;1.10;0.90;;;19.20;99.90;;;;;;5041153;28;20219;-36
2022/11/04 03:19:14;;;;;;;1.60;1.05;;;19.10;99.90;;;;;;5034581;28;20703;-36
2022/11/04 03:21:50;;;;;;;1.20;1.10;;;19.10;99.90;;;;;;5041109;28;20202;-36
2022/11/04 03:24:16;;;;;;;1.00;0.80;;;19.10;99.90;;;;;;5036599;28;20222;-36
2022/11/04 03:26:49;;;;;;;2.25;1.20;;;19.10;99.90;;;;;;5040825;28;20207;-37
2022/11/04 03:29:25;;;;;;;1.42;1.00;;;19.10;99.90;;;;;;5032070;28;20207;-36
2022/11/04 03:32:02;;;;;;;1.40;1.30;;;19.10;99.90;;;;;;5031192;28;20570;-36
2022/11/04 03:34:30;;;;;;;1.17;1.08;;;19.10;99.90;;;;;;5042061;28;20217;-36
2022/11/04 03:36:57;;;;;;;1.60;1.00;;;19.10;99.90;;;;;;5036704;28;20194;-36
2022/11/04 03:39:24;;;;;;;1.42;1.15;;;19.10;99.90;;;;;;5039960;28;20204;-36
2022/11/04 03:41:55;;;;;;;1.00;0.80;;;19.10;99.90;;;;;;5034064;28;20191;-36
2022/11/04 03:44:22;;;;;;;1.10;1.00;;;19.10;99.90;;;;;;5032281;28;20335;-36
2022/11/04 03:46:51;;;;;;;1.38;1.23;;;19.10;99.90;;;;;;5031672;28;20238;-36
2022/11/04 03:49:21;;;;;;;1.00;0.80;;;19.10;99.90;;;;;;5035358;28;20214;-36
2022/11/04 03:51:48;;;;;;;1.20;1.00;;;19.00;99.90;;;;;;5032329;28;20231;-36
2022/11/04 03:54:15;;;;;;;1.20;0.80;;;19.00;99.90;;;;;;5033812;28;20198;-36
2022/11/04 03:56:58;;;;;;;1.30;1.00;;;19.00;99.90;;;;;;5038281;28;20609;-36
2022/11/04 03:59:45;;;;;;;0.90;0.75;;;19.00;99.90;;;;;;5044693;28;20195;-36
2022/11/04 04:02:16;;;;;;;1.00;0.80;;;19.00;99.90;;;;;;5045051;28;21743;-36
2022/11/04 04:04:52;;;;;;;1.00;0.90;;;19.00;99.90;;;;;;5042633;28;20223;-36
2022/11/04 04:07:26;;;;;;;1.30;1.20;;;19.00;99.90;;;;;;5030721;28;20203;-36
2022/11/04 04:09:57;;;;;;;1.33;0.98;;;19.00;99.90;;;;;;5034478;28;20206;-36
2022/11/04 04:12:30;;;;;;;1.35;1.08;;;19.00;99.90;;;;;;5030676;28;20571;-36
2022/11/04 04:15:02;;;;;;;1.20;0.93;;;19.00;99.90;;;;;;5040931;28;20195;-36
2022/11/04 04:17:36;;;;;;;1.40;1.10;;;18.90;99.90;;;;;;5034399;28;20294;-36
2022/11/04 04:20:07;;;;;;;1.35;1.25;;;19.00;99.90;;;;;;5036530;28;20195;-36
2022/11/04 04:22:39;;;;;;;1.10;0.90;;;19.00;99.90;;;;;;5032126;28;20598;-36
2022/11/04 04:28:06;;;;;;;1.13;0.82;;;18.90;99.90;;;;;;5000014;28;20537;-36
2022/11/04 04:30:33;;;;;;;1.25;1.00;;;18.90;99.90;;;;;;5031287;28;20246;-36
2022/11/04 04:33:05;;;;;;;1.48;1.10;;;18.90;99.90;;;;;;5041246;28;20190;-37
2022/11/04 04:35:42;;;;;;;1.00;0.90;;;18.90;99.90;;;;;;5041082;28;20203;-36
2022/11/04 04:46:53;;;;;;;1.40;1.30;;;18.90;99.90;;;;;;4989412;28;20289;-37
2022/11/04 04:49:20;;;;;;;1.10;0.90;;;18.90;99.90;;;;;;5004137;28;20246;-36
2022/11/04 04:51:48;;;;;;;1.00;0.80;;;18.80;99.90;;;;;;5009759;28;20196;-37
2022/11/04 04:54:15;;;;;;;1.05;0.80;;;18.90;99.90;;;;;;5035699;28;20211;-37
2022/11/04 04:56:41;;;;;;;1.42;1.27;;;18.80;99.90;;;;;;5042812;28;20203;-36
2022/11/04 04:59:08;;;;;;;1.00;0.90;;;18.80;99.90;;;;;;5040621;28;20199;-38
2022/11/04 05:01:35;;;;;;;1.20;1.05;;;18.80;99.90;;;;;;5036647;28;20203;-35
2022/11/04 05:04:01;;;;;;;1.30;1.05;;;18.80;99.90;;;;;;5032250;28;20216;-37
2022/11/04 05:06:28;;;;;;;3.63;1.00;;;18.80;99.90;;;;;;5033942;28;20199;-37
2022/11/04 05:08:56;;;;;;;1.55;1.40;;;18.80;99.90;;;;;;5038941;28;20554;-35
2022/11/04 05:11:23;;;;;;;1.00;0.90;;;18.80;99.90;;;;;;5035480;28;20211;-35
2022/11/04 05:13:49;;;;;;;1.23;0.98;;;18.80;99.90;;;;;;5033855;28;20203;-35
2022/11/04 05:16:16;;;;;;;1.00;0.80;;;18.80;99.90;;;;;;5034022;28;20242;-38
2022/11/04 05:18:43;;;;;;;0.98;0.88;;;18.80;99.90;;;;;;5035464;28;20551;-36
2022/11/04 05:21:14;;;;;;;1.10;0.95;;;18.80;99.90;;;;;;5036938;28;20594;-38
2022/11/04 05:23:41;;;;;;;1.40;1.25;;;18.70;99.90;;;;;;5044468;28;20633;-36
2022/11/04 05:26:09;;;;;;;1.10;1.00;;;18.80;99.90;;;;;;5041225;28;20200;-38
2022/11/04 05:28:35;;;;;;;1.20;0.85;;;18.70;99.90;;;;;;5042029;28;20688;-37
2022/11/04 05:31:03;;;;;;;1.40;1.20;;;18.70;99.90;;;;;;5031956;28;20192;-37
2022/11/04 05:33:30;;;;;;;1.00;0.90;;;18.70;99.90;;;;;;5034160;28;20331;-37
2022/11/04 05:36:06;;;;;;;1.08;0.80;;;18.70;99.90;;;;;;5035048;28;20241;-37
2022/11/04 05:38:32;;;;;;;2.10;1.10;;;18.70;99.90;;;;;;5033331;28;20199;-37
2022/11/04 05:40:59;;;;;;;1.33;1.17;;;18.70;99.90;;;;;;5032092;28;20265;-37
2022/11/04 05:43:27;;;;;;;1.08;0.80;;;18.70;99.90;;;;;;5030179;28;20555;-36
2022/11/04 05:45:54;;;;;;;1.02;0.93;;;18.70;99.90;;;;;;5031696;28;20222;-37
2022/11/04 05:48:21;;;;;;;1.17;0.90;;;18.70;99.90;;;;;;5038868;28;20203;-37
2022/11/04 05:50:47;;;;;;;1.35;1.00;;;18.70;99.90;;;;;;5033175;28;20199;-37
2022/11/04 05:53:14;;;;;;;1.00;0.90;;;18.70;99.90;;;;;;5039353;28;20204;-37
2022/11/04 05:55:41;;;;;;;1.17;0.95;;;18.70;99.90;;;;;;5041462;28;20207;-37
2022/11/04 05:58:07;;;;;;;1.30;1.10;;;18.70;99.90;;;;;;5033324;28;20192;-37
2022/11/04 06:00:36;;;;;;;0.98;0.80;;;18.60;99.90;;;;;;5033846;28;20250;-37
2022/11/04 06:03:02;;;;;;;1.20;0.75;;;18.60;99.90;;;;;;5035014;28;20202;-37
2022/11/04 06:05:29;;;;;;;1.00;0.90;;;18.60;99.90;;;;;;5036726;28;20224;-37
2022/11/04 06:07:56;;;;;;;1.10;0.90;;;18.60;99.90;;;;;;5040475;28;20188;-37
2022/11/04 06:10:23;;;;;;;1.00;0.90;;;18.60;99.90;;;;;;5032486;28;20200;-37
2022/11/04 06:12:50;;;;;;;1.00;0.80;;;18.60;99.90;;;;;;5034090;28;20196;-35
2022/11/04 06:15:17;;;;;;;1.23;1.00;;;18.60;99.90;;;;;;5041788;28;20200;-36
2022/11/04 06:17:45;;;;;;;1.30;1.00;;;18.60;99.90;;;;;;5037055;28;20222;-37
2022/11/04 06:20:12;;;;;;;1.23;0.85;;;18.60;99.90;;;;;;5033396;28;20192;-37
2022/11/04 06:22:38;;;;;;;1.10;0.98;;;18.60;99.90;;;;;;5038757;28;20218;-38
2022/11/04 06:25:05;;;;;;;1.10;0.80;;;18.60;99.90;;;;;;5043552;28;20219;-37
2022/11/04 06:27:32;;;;;;;1.13;1.02;;;18.60;99.90;;;;;;5036639;28;20199;-37
2022/11/04 06:29:58;;;;;;;1.17;1.05;;;18.60;99.90;;;;;;5033662;28;20207;-37
2022/11/04 06:32:25;;;;;;;1.10;1.00;;;18.60;99.90;;;;;;5032937;28;20215;-37
2022/11/04 06:34:53;;;;;;;1.20;0.90;;;18.60;99.90;;;;;;5037809;28;20196;-37
2022/11/04 06:37:20;;;;;;;1.08;0.85;;;18.60;99.90;;;;;;5042926;28;20214;-37
2022/11/04 06:39:47;;;;;;;1.00;0.90;;;18.50;99.90;;;;;;5043884;28;20203;-36
2022/11/04 06:42:13;;;;;;;1.00;0.90;;;18.50;99.90;;;;;;5033671;28;20204;-36
2022/11/04 06:44:40;;;;;;;1.10;0.80;;;18.50;99.90;;;;;;5033458;28;20978;-37
2022/11/04 06:47:07;;;;;;;1.10;0.88;;;18.50;99.90;;;;;;5033327;28;20207;-36
2022/11/04 06:49:34;;;;;;;1.30;0.90;;;18.50;99.90;;;;;;5036585;28;20200;-37
2022/11/04 06:52:02;;;;;;;1.02;0.90;;;18.50;99.90;;;;;;5032045;28;20200;-37
2022/11/04 06:54:28;;;;;;;1.00;0.90;;;18.50;99.90;;;;;;5037964;28;20367;-37
2022/11/04 06:56:55;;;;;;;1.40;1.00;;;18.50;99.90;;;;;;5038885;28;20195;-36
2022/11/04 06:59:22;;;;;;;1.30;1.20;;;18.50;99.90;;;;;;5031207;28;20203;-37
2022/11/04 07:01:50;;;;;;;1.20;1.02;;;18.50;99.90;;;;;;5036670;28;20192;-37
2022/11/04 07:04:18;;;;;;;2.13;1.45;;;18.50;99.90;;;;;;5038122;28;20227;-36
2022/11/04 07:06:45;;;;;;;1.35;1.10;;;18.50;99.90;;;;;;5036254;28;20210;-37
2022/11/04 07:09:14;;;;;;;0.90;0.70;;;18.50;99.90;;;;;;5033012;28;20342;-37
2022/11/04 07:11:42;;;;;;;1.15;0.88;;;18.50;99.90;;;;;;5038645;28;20203;-36
2022/11/04 07:14:09;;;;;;;1.20;1.10;;;18.40;99.90;;;;;;5039058;28;20198;-37
2022/11/04 07:16:37;;;;;;;1.10;1.00;;;18.40;99.90;;;;;;5035217;28;20216;-37
2022/11/04 07:19:04;;;;;;;1.10;0.90;;;18.40;99.90;;;;;;5031733;28;20192;-37
2022/11/04 07:21:31;;;;;;;1.20;1.00;;;18.50;99.90;;;;;;5039412;28;20562;-36
2022/11/04 07:23:58;;;;;;;0.98;0.88;;;18.40;99.90;;;;;;5037189;28;20613;-37
2022/11/04 07:26:26;;;;;;;1.15;1.05;;;18.50;99.90;;;;;;5031525;28;20296;-37
2022/11/04 07:28:53;;;;;;;1.33;1.23;;;18.40;99.90;;;;;;5040334;28;20202;-37
2022/11/04 07:31:21;;;;;;;1.00;0.80;;;18.40;99.90;;;;;;5037170;28;20610;-36
2022/11/04 07:33:49;;;;;;;1.55;0.90;;;18.50;99.90;;;;;;5030527;28;20313;-36
2022/11/04 07:36:17;;;;;;;0.95;0.75;;;18.40;99.90;;;;;;5038909;28;20202;-39
2022/11/04 07:38:44;;;;;;;1.02;0.88;;;18.40;99.90;;;;;;5035391;28;20203;-37
2022/11/04 07:41:10;;;;;;;0.88;0.70;;;18.40;99.90;;;;;;5037905;28;20210;-36
2022/11/04 07:43:38;;;;;;;1.25;0.80;;;18.40;99.90;;;;;;5033674;28;20196;-37
2022/11/04 07:46:07;;;;;;;1.10;1.00;;;18.40;99.90;;;;;;5036490;28;20260;-38
2022/11/04 07:48:35;;;;;;;0.90;0.80;;;18.40;99.90;;;;;;5035334;28;20571;-36
2022/11/04 07:51:02;;;;;;;1.10;1.00;;;18.40;99.90;;;;;;5034988;28;20191;-36
2022/11/04 07:53:30;;;;;;;1.10;0.90;;;18.40;99.90;;;;;;5038386;28;20199;-37
2022/11/04 07:55:57;;;;;;;1.00;0.70;;;18.40;99.90;;;;;;5031729;28;20561;-37
2022/11/04 07:58:24;;;;;;;1.60;1.05;;;18.40;99.90;;;;;;5039911;28;20196;-37
2022/11/04 08:00:58;;;;;;;1.00;0.90;;;18.30;99.90;;;;;;5036783;28;20237;-37
2022/11/04 08:03:24;;;;;;;1.20;0.93;;;18.40;99.90;;;;;;5032992;28;20558;-37
2022/11/04 08:05:55;;;;;;;1.00;0.70;;;18.30;99.90;;;;;;5043464;28;20222;-36
2022/11/04 08:08:22;;;;;;;1.20;0.93;;;18.30;99.90;;;;;;5032821;28;20199;-37
2022/11/04 08:10:52;;;;;;;1.63;0.90;;;18.30;99.90;;;;;;5037488;28;20203;-37
2022/11/04 08:13:19;;;;;;;0.90;0.80;;;18.30;99.90;;;;;;5030858;28;20708;-36
2022/11/04 08:15:45;;;;;;;1.08;0.93;;;18.30;99.90;;;;;;5034363;28;20195;-36
2022/11/04 08:18:13;;;;;;;0.90;0.80;;;18.30;99.90;;;;;;5034460;28;20458;-36
2022/11/04 08:20:40;;;;;;;1.88;0.90;;;18.30;99.90;;;;;;5037760;28;20218;-36
2022/11/04 08:23:10;;;;;;;1.00;0.80;;;18.30;99.90;;;;;;5041655;28;20195;-36
2022/11/04 08:25:37;;;;;;;1.00;0.70;;;18.30;99.90;;;;;;5031875;28;20325;-36
2022/11/04 08:28:04;;;;;;;1.45;1.20;;;18.30;99.90;;;;;;5040158;28;20199;-36
2022/11/04 08:30:31;;;;;;;1.00;0.85;;;18.30;99.90;;;;;;5042609;28;20192;-35
2022/11/04 08:32:58;;;;;;;1.13;0.80;;;18.30;99.90;;;;;;5029439;28;20192;-36
2022/11/04 08:35:26;;;;;;;0.90;0.70;;;18.30;99.90;;;;;;5031613;28;20614;-36
2022/11/04 08:37:53;;;;;;;1.10;0.90;;;18.20;99.90;;;;;;5037753;28;20202;-37
2022/11/04 08:40:19;;;;;;;1.05;0.80;;;18.30;99.90;;;;;;5035886;28;20200;-37
2022/11/04 08:42:46;;;;;;;1.00;0.90;;;18.30;99.90;;;;;;5037618;28;20226;-36
2022/11/04 08:45:13;;;;;;;1.10;0.90;;;18.30;99.90;;;;;;5038972;28;20223;-37
2022/11/04 08:47:39;;;;;;;1.10;1.00;;;18.30;99.90;;;;;;5032614;28;20196;-37
2022/11/04 08:50:07;;;;;;;1.08;0.80;;;18.30;99.90;;;;;;5039355;28;20570;-37
2022/11/04 08:52:35;;;;;;;2.35;1.00;;;18.30;99.90;;;;;;5045506;28;20202;-36
2022/11/04 08:55:01;;;;;;;1.10;0.98;;;18.30;99.90;;;;;;5037725;28;20200;-37
2022/11/04 08:57:30;;;;;;;1.00;0.80;;;18.40;99.90;;;;;;5050950;28;20262;-37
2022/11/04 08:59:56;;;;;;;1.20;1.10;;;18.40;99.90;;;;;;5037820;28;20553;-37
2022/11/04 09:02:23;;;;;;;1.00;0.80;;;18.40;99.90;;;;;;5048862;28;20210;-37
2022/11/04 09:04:50;;;;;;;1.20;0.90;;;18.40;99.90;;;;;;5039414;28;20227;-37
2022/11/04 09:07:16;;;;;;;1.40;1.00;;;18.40;99.90;;;;;;5032506;28;20210;-37
2022/11/04 09:09:44;;;;;;;1.20;0.75;;;18.40;99.90;;;;;;5034331;28;20728;-36
2022/11/04 09:12:11;;;;;;;1.40;0.82;;;18.40;99.90;;;;;;5035062;28;20221;-36
2022/11/04 09:14:38;;;;;;;1.60;0.90;;;18.40;99.90;;;;;;5044659;28;20195;-36
2022/11/04 09:17:05;;;;;;;0.90;0.70;;;18.40;99.90;;;;;;5036073;28;20321;-36
2022/11/04 09:19:31;;;;;;;1.80;0.95;;;18.40;99.90;;;;;;5038911;28;20203;-36
2022/11/04 09:21:58;;;;;;;1.20;0.80;;;18.40;99.90;;;;;;5038769;28;20523;-36
2022/11/04 09:24:25;;;;;;;2.30;0.90;;;18.40;99.90;;;;;;5038835;28;20202;-36
2022/11/04 09:26:53;;;;;;;1.00;0.90;;;18.40;99.90;;;;;;5048370;28;20199;-35
2022/11/04 09:29:20;;;;;;;1.30;1.00;;;18.40;99.90;;;;;;5040206;28;20205;-35
2022/11/04 09:31:48;;;;;;;1.05;0.93;;;18.40;99.90;;;;;;5030593;28;20567;-37
2022/11/04 09:34:16;;;;;;;1.02;0.93;;;18.40;99.90;;;;;;5043744;28;20286;-38
2022/11/04 09:36:43;;;;;;;0.93;0.75;;;18.40;99.90;;;;;;5034248;28;20738;-37
2022/11/04 09:39:10;;;;;;;1.20;0.80;;;18.50;99.90;;;;;;5040412;28;20649;-35
2022/11/04 09:41:56;;;;;;;1.58;1.02;;;18.50;99.90;;;;;;5055184;28;20209;-35
2022/11/04 09:44:26;;;;;;;1.33;0.70;;;18.50;99.90;;;;;;5045150;28;20195;-36
2022/11/04 09:46:57;;;;;;;1.00;0.85;;;18.50;99.90;;;;;;5035511;28;20310;-37
2022/11/04 09:49:27;;;;;;;1.10;1.00;;;18.50;99.90;;;;;;5042232;28;20187;-37
2022/11/04 09:51:57;;;;;;;1.00;0.88;;;18.50;99.90;;;;;;5038199;28;20195;-38
2022/11/04 09:54:26;;;;;;;1.30;0.93;;;18.50;99.90;;;;;;5050302;28;20606;-37
2022/11/04 09:56:57;;;;;;;4.32;2.28;;;18.50;99.90;;;;;;5036188;28;20207;-37
2022/11/04 09:59:27;;;;;;;2.45;1.00;;;18.50;99.90;;;;;;5045577;28;20203;-37
2022/11/04 10:02:05;;;;;;;1.52;0.90;;;18.50;99.90;;;;;;5041838;28;20192;-37
2022/11/04 10:04:46;;;;;;;5.03;1.02;;;18.60;99.90;;;;;;5043102;28;20196;-37
2022/11/04 10:07:30;;;;;;;4.60;1.10;;;18.60;99.90;;;;;;5040084;28;20191;-40
2022/11/04 10:10:04;;;;;;;1.10;0.90;;;18.60;99.90;;;;;;5032161;28;20659;-39
2022/11/04 10:12:46;;;;;;;2.13;1.00;;;18.70;99.90;;;;;;5034169;28;20203;-38
2022/11/04 10:15:32;;;;;;;0.90;0.70;;;18.70;99.90;;;;;;5040709;28;20223;-40
2022/11/04 10:18:16;;;;;;;5.60;1.00;;;18.70;99.90;;;;;;5039737;28;20638;-40
2022/11/04 10:20:52;;;;;;;1.00;0.80;;;18.70;99.90;;;;;;5041325;28;20195;-39
2022/11/04 10:23:22;;;;;;;2.25;0.80;;;18.70;99.90;;;;;;5042988;28;20210;-39
2022/11/04 10:25:55;;;;;;;1.30;0.90;;;18.70;99.90;;;;;;5040869;28;20219;-38
2022/11/04 10:28:30;;;;;;;1.30;1.10;;;18.80;99.90;;;;;;5042622;28;20204;-37
2022/11/04 10:30:56;;;;;;;1.10;0.80;;;18.80;99.90;;;;;;5039108;28;20203;-39
2022/11/04 10:33:28;;;;;;;1.70;1.15;;;18.90;99.90;;;;;;5037444;28;20224;-37
2022/11/04 10:35:58;;;;;;;1.42;0.85;;;18.90;99.90;;;;;;5033859;28;20670;-37
2022/11/04 10:38:32;;;;;;;1.10;0.80;;;18.80;99.90;;;;;;5033562;28;20211;-36
2022/11/04 10:40:59;;;;;;;1.10;1.00;;;18.70;99.90;;;;;;5044387;28;20199;-36
2022/11/04 10:43:32;;;;;;;2.72;1.08;;;18.70;99.90;;;;;;5032074;28;20681;-37
2022/11/04 10:46:20;;;;;;;1.25;0.95;;;18.70;99.90;;;;;;5043913;28;20211;-37
2022/11/04 10:48:51;;;;;;;1.60;1.17;;;18.70;99.90;;;;;;5041077;28;20199;-37
2022/11/04 10:51:20;;;;;;;1.73;0.90;;;18.70;99.90;;;;;;5038013;28;20196;-38
2022/11/04 10:53:53;;;;;;;1.10;0.95;;;18.70;99.90;;;;;;5046318;28;20277;-38
2022/11/04 10:56:31;;;;;;;3.65;1.20;;;18.70;99.90;;;;;;5046621;28;20199;-39
2022/11/04 10:59:08;;;;;;;1.98;1.00;;;18.70;99.90;;;;;;5040738;28;20535;-38
2022/11/04 11:01:35;;;;;;;1.30;0.93;;;18.70;99.90;;;;;;5035805;28;20203;-36
2022/11/04 11:04:07;;;;;;;1.58;0.93;;;18.70;99.90;;;;;;5033037;28;20207;-36
2022/11/04 11:06:35;;;;;;;1.92;0.98;;;18.70;99.90;;;;;;5032996;28;20231;-38
2022/11/04 11:09:14;;;;;;;1.10;0.90;;;18.70;99.90;;;;;;5038593;28;20204;-37
2022/11/04 11:11:46;;;;;;;1.92;0.80;;;18.70;99.90;;;;;;5039435;28;20203;-38
2022/11/04 11:14:32;;;;;;;1.48;1.00;;;18.80;99.90;;;;;;5042719;28;20195;-36
2022/11/04 11:17:18;;;;;;;2.22;0.95;;;18.80;99.90;;;;;;5038444;28;20211;-36
2022/11/04 11:19:49;;;;;;;1.38;1.20;;;18.80;99.90;;;;;;5040335;28;20203;-38
2022/11/04 11:22:30;;;;;;;1.58;1.48;;;18.80;99.90;;;;;;5036844;28;20202;-39
2022/11/04 11:25:23;;;;;;;1.20;0.90;;;18.80;99.90;;;;;;5039242;28;20278;-38
2022/11/04 11:27:52;;;;;;;1.27;1.00;;;18.80;99.90;;;;;;5034320;28;20196;-39
2022/11/04 11:30:23;;;;;;;1.75;1.00;;;18.80;99.90;;;;;;5040165;28;20195;-37
2022/11/04 11:32:54;;;;;;;2.05;1.50;;;18.80;99.90;;;;;;5032585;28;20246;-38
2022/11/04 11:35:25;;;;;;;2.65;1.02;;;18.80;99.90;;;;;;5047065;28;20195;-36
2022/11/04 11:37:52;;;;;;;1.65;1.00;;;18.80;99.90;;;;;;5032961;28;20216;-35
2022/11/04 11:40:27;;;;;;;1.52;1.10;;;18.80;99.90;;;;;;5040979;28;20220;-38
2022/11/04 11:42:55;;;;;;;6.22;2.38;;;18.90;99.90;;;;;;5039926;28;20187;-35
2022/11/04 11:45:25;;;;;;;5.25;2.03;;;17.20;99.90;;;;;;5035621;28;20196;-35
2022/11/04 11:47:53;;;;;;;5.40;2.13;;;16.50;99.90;;;;;;5041643;28;20201;-35
2022/11/04 11:50:25;;;;;;;2.35;1.50;;;16.20;99.90;;;;;;5032926;28;20226;-41
2022/11/04 11:52:53;;;;;;;12.77;2.08;;;16.30;99.90;;;;;;5033761;28;20199;-43
2022/11/04 11:55:23;;;;;;;4.38;1.75;;;17.30;99.90;;;;;;5032029;28;20196;-46
2022/11/04 11:58:00;;;;;;;5.93;1.90;;;17.80;99.90;;;;;;5042478;28;20203;-43
2022/11/04 12:00:32;;;;;;;3.75;1.80;;;18.20;99.90;;;;;;5036237;28;20222;-44
2022/11/04 12:03:02;;;;;;;2.10;1.35;;;18.60;99.90;;;;;;5030883;28;20195;-45
2022/11/04 12:05:35;;;;;;;4.30;1.45;;;19.00;99.90;;;;;;5034279;28;20283;-44
2022/11/04 12:08:28;;;;;;;3.33;1.20;;;19.20;99.90;;;;;;5031167;28;20198;-44
2022/11/04 12:11:03;;;;;;;3.45;1.42;;;19.40;99.90;;;;;;5033203;28;20203;-44
2022/11/04 12:13:35;;;;;;;4.53;1.58;;;19.40;99.90;;;;;;5038264;28;20237;-43
2022/11/04 12:16:20;;;;;;;2.83;1.10;;;19.60;99.90;;;;;;5034392;28;20206;-43
2022/11/04 12:19:15;;;;;;;6.60;1.90;;;19.70;99.90;;;;;;5037830;28;20497;-43
2022/11/04 12:21:46;;;;;;;2.92;1.50;;;19.80;99.90;;;;;;5036999;28;20206;-45
2022/11/04 12:24:26;;;;;;;2.08;1.10;;;19.80;99.90;;;;;;5037205;28;20210;-43
2022/11/04 12:27:01;;;;;;;2.33;1.20;;;19.90;99.90;;;;;;5036090;28;20238;-45
2022/11/04 12:29:40;;;;;;;1.58;1.00;;;19.90;99.90;;;;;;5034777;28;20190;-45
2022/11/04 12:32:18;;;;;;;6.70;1.55;;;20.00;99.90;;;;;;5038555;28;20191;-45
2022/11/04 12:34:59;;;;;;;3.05;1.10;;;20.00;99.90;;;;;;5040193;28;20200;-43
2022/11/04 12:37:36;;;;;;;1.50;1.10;;;20.10;99.90;;;;;;5031326;28;20291;-45
2022/11/04 12:40:15;;;;;;;3.60;1.27;;;20.20;99.90;;;;;;5036366;28;20203;-43
2022/11/04 12:42:59;;;;;;;2.55;1.27;;;20.10;99.90;;;;;;5034273;28;20566;-42
2022/11/04 12:45:38;;;;;;;1.40;1.10;;;20.20;99.90;;;;;;5037581;28;20195;-40
2022/11/04 12:48:10;;;;;;;1.42;0.90;;;20.30;99.90;;;;;;5036765;28;20207;-40
2022/11/04 12:50:53;;;;;;;2.20;1.00;;;20.50;99.90;;;;;;5032034;28;20199;-45
2022/11/04 12:53:37;;;;;;;5.45;1.45;;;20.50;99.90;;;;;;5035568;28;20203;-42
2022/11/04 12:56:09;;;;;;;1.83;1.05;;;20.60;99.90;;;;;;5030197;28;20203;-42
2022/11/04 12:58:55;;;;;;;2.83;1.05;;;20.70;99.90;;;;;;5035060;28;20202;-39
2022/11/04 13:01:26;;;;;;;1.77;1.00;;;20.70;99.90;;;;;;5033034;28;20318;-42
2022/11/04 13:03:59;;;;;;;3.28;1.50;;;20.70;99.90;;;;;;5041733;28;20195;-39
2022/11/04 13:06:30;;;;;;;2.17;1.27;;;20.80;99.90;;;;;;5033611;28;20505;-41
2022/11/04 13:09:02;;;;;;;1.53;1.00;;;20.80;99.90;;;;;;5032503;28;20194;-39
2022/11/04 13:11:33;;;;;;;3.50;1.13;;;20.90;99.90;;;;;;5043187;28;20453;-44
2022/11/04 13:14:04;;;;;;;3.10;1.38;;;20.90;99.90;;;;;;5045783;28;20195;-43
2022/11/04 13:16:33;;;;;;;2.13;0.98;;;20.90;99.90;;;;;;5038109;28;20583;-42
2022/11/04 13:19:02;;;;;;;1.88;1.00;;;21.00;99.90;;;;;;5042308;28;20210;-44
2022/11/04 13:21:35;;;;;;;7.40;1.13;;;21.00;99.90;;;;;;5046508;28;20222;-39
2022/11/04 13:24:04;;;;;;;1.43;0.80;;;21.10;99.90;;;;;;5042741;28;20454;-39
2022/11/04 13:26:32;;;;;;;3.05;1.15;;;21.10;99.90;;;;;;5044700;28;20480;-44
2022/11/04 13:29:05;;;;;;;2.20;1.00;;;21.10;99.90;;;;;;5041862;28;21924;-45
2022/11/04 13:31:41;;;;;;;2.03;1.30;;;21.10;99.90;;;;;;5044706;28;20642;-39
2022/11/04 13:34:18;;;;;;;5.20;1.30;;;21.20;99.90;;;;;;5042728;28;20460;-41
2022/11/04 13:36:49;;;;;;;1.47;1.00;;;21.20;99.90;;;;;;5036469;28;20458;-38